sensor_id;sensor_type;location;lat;lon;timestamp;P1;durP1;ratioP1;P2;durP2;ratioP2
11394;SDS011;5753;54.402;10.220;2024-03-02T00:00:41;39.15;;;25.17;;
11394;SDS011;5753;54.402;10.220;2024-03-02T00:03:07;33.40;;;23.92;;
11394;SDS011;5753;54.402;10.220;2024-03-02T00:05:36;32.33;;;21.02;;
11394;SDS011;5753;54.402;10.220;2024-03-02T00:08:03;39.47;;;22.20;;
11394;SDS011;5753;54.402;10.220;2024-03-02T00:10:36;45.10;;;21.38;;
11394;SDS011;5753;54.402;10.220;2024-03-02T00:13:06;40.05;;;19.92;;
11394;SDS011;5753;54.402;10.220;2024-03-02T00:15:54;46.17;;;23.75;;
11394;SDS011;5753;54.402;10.220;2024-03-02T00:18:24;32.33;;;21.85;;
11394;SDS011;5753;54.402;10.220;2024-03-02T00:20:53;36.85;;;23.42;;
11394;SDS011;5753;54.402;10.220;2024-03-02T00:23:21;44.42;;;24.60;;
11394;SDS011;5753;54.402;10.220;2024-03-02T00:25:49;37.80;;;24.92;;
11394;SDS011;5753;54.402;10.220;2024-03-02T00:28:25;38.20;;;22.00;;
11394;SDS011;5753;54.402;10.220;2024-03-02T00:33:31;39.40;;;23.80;;
11394;SDS011;5753;54.402;10.220;2024-03-02T00:36:05;45.05;;;23.73;;
11394;SDS011;5753;54.402;10.220;2024-03-02T00:38:32;38.65;;;24.30;;
11394;SDS011;5753;54.402;10.220;2024-03-02T00:41:04;38.80;;;24.02;;
11394;SDS011;5753;54.402;10.220;2024-03-02T00:43:41;38.17;;;21.15;;
11394;SDS011;5753;54.402;10.220;2024-03-02T00:46:10;42.88;;;21.65;;
11394;SDS011;5753;54.402;10.220;2024-03-02T00:48:38;36.50;;;27.52;;
11394;SDS011;5753;54.402;10.220;2024-03-02T00:51:11;45.05;;;21.90;;
11394;SDS011;5753;54.402;10.220;2024-03-02T00:53:37;34.45;;;26.30;;
11394;SDS011;5753;54.402;10.220;2024-03-02T00:56:04;39.72;;;21.83;;
11394;SDS011;5753;54.402;10.220;2024-03-02T00:58:36;38.40;;;25.10;;
11394;SDS011;5753;54.402;10.220;2024-03-02T01:01:02;40.95;;;21.35;;
11394;SDS011;5753;54.402;10.220;2024-03-02T01:03:29;41.90;;;25.67;;
11394;SDS011;5753;54.402;10.220;2024-03-02T01:05:58;46.70;;;23.85;;
11394;SDS011;5753;54.402;10.220;2024-03-02T01:08:24;42.63;;;22.27;;
11394;SDS011;5753;54.402;10.220;2024-03-02T01:10:51;41.00;;;25.27;;
11394;SDS011;5753;54.402;10.220;2024-03-02T01:13:17;41.40;;;23.63;;
11394;SDS011;5753;54.402;10.220;2024-03-02T01:15:44;41.38;;;22.55;;
11394;SDS011;5753;54.402;10.220;2024-03-02T01:18:11;38.47;;;22.77;;
11394;SDS011;5753;54.402;10.220;2024-03-02T01:20:38;47.30;;;26.92;;
11394;SDS011;5753;54.402;10.220;2024-03-02T01:23:04;44.53;;;27.60;;
11394;SDS011;5753;54.402;10.220;2024-03-02T01:25:32;40.13;;;25.55;;
11394;SDS011;5753;54.402;10.220;2024-03-02T01:27:58;42.38;;;25.73;;
11394;SDS011;5753;54.402;10.220;2024-03-02T01:30:24;41.45;;;25.08;;
11394;SDS011;5753;54.402;10.220;2024-03-02T01:32:52;48.97;;;28.45;;
11394;SDS011;5753;54.402;10.220;2024-03-02T01:35:19;38.95;;;24.27;;
11394;SDS011;5753;54.402;10.220;2024-03-02T01:37:49;42.88;;;26.08;;
11394;SDS011;5753;54.402;10.220;2024-03-02T01:40:15;32.53;;;24.55;;
11394;SDS011;5753;54.402;10.220;2024-03-02T01:42:43;53.25;;;30.02;;
11394;SDS011;5753;54.402;10.220;2024-03-02T01:45:11;37.80;;;21.95;;
11394;SDS011;5753;54.402;10.220;2024-03-02T01:47:37;38.13;;;23.45;;
11394;SDS011;5753;54.402;10.220;2024-03-02T01:50:05;47.15;;;25.25;;
11394;SDS011;5753;54.402;10.220;2024-03-02T01:52:32;52.92;;;28.20;;
11394;SDS011;5753;54.402;10.220;2024-03-02T01:55:00;38.42;;;22.05;;
11394;SDS011;5753;54.402;10.220;2024-03-02T01:57:26;37.53;;;24.33;;
11394;SDS011;5753;54.402;10.220;2024-03-02T01:59:52;45.17;;;24.83;;
11394;SDS011;5753;54.402;10.220;2024-03-02T02:02:20;43.00;;;25.88;;
11394;SDS011;5753;54.402;10.220;2024-03-02T02:04:48;56.33;;;25.90;;
11394;SDS011;5753;54.402;10.220;2024-03-02T02:07:14;42.50;;;23.95;;
11394;SDS011;5753;54.402;10.220;2024-03-02T02:09:43;37.22;;;24.30;;
11394;SDS011;5753;54.402;10.220;2024-03-02T02:12:10;47.13;;;23.20;;
11394;SDS011;5753;54.402;10.220;2024-03-02T02:14:37;51.75;;;27.60;;
11394;SDS011;5753;54.402;10.220;2024-03-02T02:17:05;42.55;;;27.70;;
11394;SDS011;5753;54.402;10.220;2024-03-02T02:19:31;37.97;;;21.98;;
11394;SDS011;5753;54.402;10.220;2024-03-02T02:21:58;52.13;;;26.85;;
11394;SDS011;5753;54.402;10.220;2024-03-02T02:24:25;40.53;;;28.25;;
11394;SDS011;5753;54.402;10.220;2024-03-02T02:26:52;46.85;;;25.48;;
11394;SDS011;5753;54.402;10.220;2024-03-02T02:29:19;42.00;;;25.73;;
11394;SDS011;5753;54.402;10.220;2024-03-02T02:31:45;43.97;;;27.52;;
11394;SDS011;5753;54.402;10.220;2024-03-02T02:34:13;42.35;;;24.92;;
11394;SDS011;5753;54.402;10.220;2024-03-02T02:36:40;41.40;;;24.10;;
11394;SDS011;5753;54.402;10.220;2024-03-02T02:39:09;37.30;;;26.02;;
11394;SDS011;5753;54.402;10.220;2024-03-02T02:41:40;40.65;;;24.35;;
11394;SDS011;5753;54.402;10.220;2024-03-02T02:44:06;46.55;;;24.80;;
11394;SDS011;5753;54.402;10.220;2024-03-02T02:46:32;45.92;;;27.92;;
11394;SDS011;5753;54.402;10.220;2024-03-02T02:48:58;47.20;;;26.88;;
11394;SDS011;5753;54.402;10.220;2024-03-02T02:51:27;43.33;;;26.60;;
11394;SDS011;5753;54.402;10.220;2024-03-02T02:53:54;41.42;;;27.38;;
11394;SDS011;5753;54.402;10.220;2024-03-02T02:56:20;38.38;;;22.42;;
11394;SDS011;5753;54.402;10.220;2024-03-02T02:58:47;42.08;;;25.70;;
11394;SDS011;5753;54.402;10.220;2024-03-02T03:01:13;48.58;;;28.15;;
11394;SDS011;5753;54.402;10.220;2024-03-02T03:03:45;39.50;;;24.90;;
11394;SDS011;5753;54.402;10.220;2024-03-02T03:06:13;49.83;;;29.98;;
11394;SDS011;5753;54.402;10.220;2024-03-02T03:08:39;57.38;;;29.67;;
11394;SDS011;5753;54.402;10.220;2024-03-02T03:11:05;40.35;;;24.63;;
11394;SDS011;5753;54.402;10.220;2024-03-02T03:13:32;43.47;;;26.08;;
11394;SDS011;5753;54.402;10.220;2024-03-02T03:15:59;46.95;;;28.25;;
11394;SDS011;5753;54.402;10.220;2024-03-02T03:18:25;42.65;;;24.70;;
11394;SDS011;5753;54.402;10.220;2024-03-02T03:20:51;53.70;;;27.17;;
11394;SDS011;5753;54.402;10.220;2024-03-02T03:23:17;46.95;;;24.63;;
11394;SDS011;5753;54.402;10.220;2024-03-02T03:25:45;37.65;;;23.10;;
11394;SDS011;5753;54.402;10.220;2024-03-02T03:28:12;43.78;;;27.73;;
11394;SDS011;5753;54.402;10.220;2024-03-02T03:30:39;44.58;;;28.55;;
11394;SDS011;5753;54.402;10.220;2024-03-02T03:33:06;40.85;;;26.15;;
11394;SDS011;5753;54.402;10.220;2024-03-02T03:35:32;45.22;;;25.60;;
11394;SDS011;5753;54.402;10.220;2024-03-02T03:38:00;45.05;;;23.67;;
11394;SDS011;5753;54.402;10.220;2024-03-02T03:40:28;48.28;;;24.42;;
11394;SDS011;5753;54.402;10.220;2024-03-02T03:42:54;37.83;;;25.27;;
11394;SDS011;5753;54.402;10.220;2024-03-02T03:45:21;41.45;;;26.05;;
11394;SDS011;5753;54.402;10.220;2024-03-02T03:47:50;41.00;;;25.05;;
11394;SDS011;5753;54.402;10.220;2024-03-02T03:50:17;38.55;;;24.50;;
11394;SDS011;5753;54.402;10.220;2024-03-02T03:52:44;45.95;;;25.38;;
11394;SDS011;5753;54.402;10.220;2024-03-02T03:55:11;37.95;;;23.67;;
11394;SDS011;5753;54.402;10.220;2024-03-02T03:57:38;53.65;;;27.05;;
11394;SDS011;5753;54.402;10.220;2024-03-02T04:00:06;55.95;;;30.75;;
11394;SDS011;5753;54.402;10.220;2024-03-02T04:02:35;47.38;;;24.45;;
11394;SDS011;5753;54.402;10.220;2024-03-02T04:05:01;47.53;;;28.75;;
11394;SDS011;5753;54.402;10.220;2024-03-02T04:07:30;51.88;;;27.65;;
11394;SDS011;5753;54.402;10.220;2024-03-02T04:09:59;48.65;;;28.00;;
11394;SDS011;5753;54.402;10.220;2024-03-02T04:12:25;44.80;;;26.55;;
11394;SDS011;5753;54.402;10.220;2024-03-02T04:14:52;49.28;;;26.50;;
11394;SDS011;5753;54.402;10.220;2024-03-02T04:17:18;47.20;;;27.60;;
11394;SDS011;5753;54.402;10.220;2024-03-02T04:19:46;43.70;;;26.48;;
11394;SDS011;5753;54.402;10.220;2024-03-02T04:22:12;41.55;;;29.67;;
11394;SDS011;5753;54.402;10.220;2024-03-02T04:24:38;48.10;;;28.90;;
11394;SDS011;5753;54.402;10.220;2024-03-02T04:27:05;51.35;;;27.23;;
11394;SDS011;5753;54.402;10.220;2024-03-02T04:29:32;53.08;;;31.80;;
11394;SDS011;5753;54.402;10.220;2024-03-02T04:31:58;42.58;;;26.20;;
11394;SDS011;5753;54.402;10.220;2024-03-02T04:34:26;46.17;;;29.92;;
11394;SDS011;5753;54.402;10.220;2024-03-02T04:36:53;50.58;;;27.08;;
11394;SDS011;5753;54.402;10.220;2024-03-02T04:39:19;41.95;;;24.70;;
11394;SDS011;5753;54.402;10.220;2024-03-02T04:41:45;42.85;;;26.20;;
11394;SDS011;5753;54.402;10.220;2024-03-02T04:44:13;42.97;;;26.38;;
11394;SDS011;5753;54.402;10.220;2024-03-02T04:46:39;52.33;;;32.03;;
11394;SDS011;5753;54.402;10.220;2024-03-02T04:49:05;51.83;;;29.27;;
11394;SDS011;5753;54.402;10.220;2024-03-02T04:51:34;48.42;;;28.40;;
11394;SDS011;5753;54.402;10.220;2024-03-02T04:54:01;50.08;;;29.52;;
11394;SDS011;5753;54.402;10.220;2024-03-02T04:56:27;47.75;;;28.42;;
11394;SDS011;5753;54.402;10.220;2024-03-02T04:58:57;46.67;;;24.75;;
11394;SDS011;5753;54.402;10.220;2024-03-02T05:01:23;48.45;;;25.50;;
11394;SDS011;5753;54.402;10.220;2024-03-02T05:03:50;50.28;;;31.65;;
11394;SDS011;5753;54.402;10.220;2024-03-02T05:06:16;45.35;;;28.98;;
11394;SDS011;5753;54.402;10.220;2024-03-02T05:08:43;44.92;;;26.02;;
11394;SDS011;5753;54.402;10.220;2024-03-02T05:11:10;43.17;;;27.45;;
11394;SDS011;5753;54.402;10.220;2024-03-02T05:14:06;55.72;;;28.48;;
11394;SDS011;5753;54.402;10.220;2024-03-02T05:16:33;54.63;;;31.73;;
11394;SDS011;5753;54.402;10.220;2024-03-02T05:19:01;58.28;;;30.88;;
11394;SDS011;5753;54.402;10.220;2024-03-02T05:21:29;41.80;;;25.58;;
11394;SDS011;5753;54.402;10.220;2024-03-02T05:23:55;49.00;;;28.48;;
11394;SDS011;5753;54.402;10.220;2024-03-02T05:26:21;39.92;;;24.38;;
11394;SDS011;5753;54.402;10.220;2024-03-02T05:28:47;48.35;;;28.00;;
11394;SDS011;5753;54.402;10.220;2024-03-02T05:31:17;52.70;;;32.00;;
11394;SDS011;5753;54.402;10.220;2024-03-02T05:33:43;51.58;;;29.02;;
11394;SDS011;5753;54.402;10.220;2024-03-02T05:36:09;54.63;;;31.42;;
11394;SDS011;5753;54.402;10.220;2024-03-02T05:38:36;48.97;;;26.52;;
11394;SDS011;5753;54.402;10.220;2024-03-02T05:41:02;57.35;;;30.83;;
11394;SDS011;5753;54.402;10.220;2024-03-02T05:43:29;41.63;;;27.83;;
11394;SDS011;5753;54.402;10.220;2024-03-02T05:45:55;46.10;;;29.33;;
11394;SDS011;5753;54.402;10.220;2024-03-02T05:48:22;45.17;;;29.38;;
11394;SDS011;5753;54.402;10.220;2024-03-02T05:50:49;54.17;;;33.13;;
11394;SDS011;5753;54.402;10.220;2024-03-02T05:53:16;52.25;;;33.47;;
11394;SDS011;5753;54.402;10.220;2024-03-02T05:55:44;41.85;;;27.33;;
11394;SDS011;5753;54.402;10.220;2024-03-02T05:58:10;43.50;;;29.48;;
11394;SDS011;5753;54.402;10.220;2024-03-02T06:00:51;40.47;;;25.73;;
11394;SDS011;5753;54.402;10.220;2024-03-02T06:03:17;46.80;;;30.40;;
11394;SDS011;5753;54.402;10.220;2024-03-02T06:05:43;50.55;;;27.35;;
11394;SDS011;5753;54.402;10.220;2024-03-02T06:08:15;53.35;;;29.83;;
11394;SDS011;5753;54.402;10.220;2024-03-02T06:10:45;52.05;;;28.10;;
11394;SDS011;5753;54.402;10.220;2024-03-02T06:13:11;51.30;;;25.80;;
11394;SDS011;5753;54.402;10.220;2024-03-02T06:15:37;42.13;;;29.00;;
11394;SDS011;5753;54.402;10.220;2024-03-02T06:18:04;44.05;;;31.80;;
11394;SDS011;5753;54.402;10.220;2024-03-02T06:20:32;48.90;;;30.08;;
11394;SDS011;5753;54.402;10.220;2024-03-02T06:22:59;34.05;;;23.95;;
11394;SDS011;5753;54.402;10.220;2024-03-02T06:25:25;56.65;;;31.02;;
11394;SDS011;5753;54.402;10.220;2024-03-02T06:27:51;49.28;;;28.05;;
11394;SDS011;5753;54.402;10.220;2024-03-02T06:30:18;51.78;;;26.65;;
11394;SDS011;5753;54.402;10.220;2024-03-02T06:32:44;49.50;;;27.48;;
11394;SDS011;5753;54.402;10.220;2024-03-02T06:35:10;42.58;;;28.63;;
11394;SDS011;5753;54.402;10.220;2024-03-02T06:37:37;59.08;;;32.78;;
11394;SDS011;5753;54.402;10.220;2024-03-02T06:40:07;41.65;;;27.13;;
11394;SDS011;5753;54.402;10.220;2024-03-02T06:42:34;42.72;;;23.75;;
11394;SDS011;5753;54.402;10.220;2024-03-02T06:45:01;47.17;;;26.88;;
11394;SDS011;5753;54.402;10.220;2024-03-02T06:47:27;49.28;;;31.27;;
11394;SDS011;5753;54.402;10.220;2024-03-02T06:49:54;47.25;;;24.55;;
11394;SDS011;5753;54.402;10.220;2024-03-02T06:52:22;44.00;;;25.05;;
11394;SDS011;5753;54.402;10.220;2024-03-02T06:54:49;52.10;;;28.20;;
11394;SDS011;5753;54.402;10.220;2024-03-02T06:57:15;44.53;;;27.23;;
11394;SDS011;5753;54.402;10.220;2024-03-02T06:59:42;47.80;;;29.05;;
11394;SDS011;5753;54.402;10.220;2024-03-02T07:02:09;44.78;;;23.65;;
11394;SDS011;5753;54.402;10.220;2024-03-02T07:04:36;52.58;;;29.90;;
11394;SDS011;5753;54.402;10.220;2024-03-02T07:07:06;55.65;;;27.90;;
11394;SDS011;5753;54.402;10.220;2024-03-02T07:09:32;47.33;;;25.33;;
11394;SDS011;5753;54.402;10.220;2024-03-02T07:11:58;43.70;;;27.60;;
11394;SDS011;5753;54.402;10.220;2024-03-02T07:14:26;52.10;;;28.70;;
11394;SDS011;5753;54.402;10.220;2024-03-02T07:17:12;41.42;;;28.55;;
11394;SDS011;5753;54.402;10.220;2024-03-02T07:19:38;39.30;;;25.35;;
11394;SDS011;5753;54.402;10.220;2024-03-02T07:22:08;50.17;;;29.88;;
11394;SDS011;5753;54.402;10.220;2024-03-02T07:24:41;39.88;;;25.95;;
11394;SDS011;5753;54.402;10.220;2024-03-02T07:27:12;50.13;;;27.67;;
11394;SDS011;5753;54.402;10.220;2024-03-02T07:29:40;46.90;;;26.92;;
11394;SDS011;5753;54.402;10.220;2024-03-02T07:32:07;52.42;;;28.23;;
11394;SDS011;5753;54.402;10.220;2024-03-02T07:34:35;46.83;;;26.38;;
11394;SDS011;5753;54.402;10.220;2024-03-02T07:37:02;38.80;;;24.17;;
11394;SDS011;5753;54.402;10.220;2024-03-02T07:39:29;45.58;;;29.17;;
11394;SDS011;5753;54.402;10.220;2024-03-02T07:41:57;47.92;;;29.38;;
11394;SDS011;5753;54.402;10.220;2024-03-02T07:44:24;39.22;;;26.38;;
11394;SDS011;5753;54.402;10.220;2024-03-02T07:46:50;40.83;;;27.98;;
11394;SDS011;5753;54.402;10.220;2024-03-02T07:49:17;42.38;;;23.25;;
11394;SDS011;5753;54.402;10.220;2024-03-02T07:51:44;50.40;;;31.92;;
11394;SDS011;5753;54.402;10.220;2024-03-02T07:54:12;45.13;;;27.90;;
11394;SDS011;5753;54.402;10.220;2024-03-02T07:56:38;38.80;;;25.75;;
11394;SDS011;5753;54.402;10.220;2024-03-02T07:59:07;39.65;;;26.10;;
11394;SDS011;5753;54.402;10.220;2024-03-02T08:01:34;44.80;;;26.55;;
11394;SDS011;5753;54.402;10.220;2024-03-02T08:04:01;38.50;;;25.40;;
11394;SDS011;5753;54.402;10.220;2024-03-02T08:06:28;40.22;;;23.65;;
11394;SDS011;5753;54.402;10.220;2024-03-02T08:08:58;46.70;;;27.38;;
11394;SDS011;5753;54.402;10.220;2024-03-02T08:11:26;44.88;;;24.50;;
11394;SDS011;5753;54.402;10.220;2024-03-02T08:13:54;31.13;;;24.23;;
11394;SDS011;5753;54.402;10.220;2024-03-02T08:16:20;39.78;;;24.60;;
11394;SDS011;5753;54.402;10.220;2024-03-02T08:18:48;37.30;;;24.92;;
11394;SDS011;5753;54.402;10.220;2024-03-02T08:21:15;41.95;;;28.13;;
11394;SDS011;5753;54.402;10.220;2024-03-02T08:23:46;40.88;;;27.67;;
11394;SDS011;5753;54.402;10.220;2024-03-02T08:26:12;36.78;;;22.77;;
11394;SDS011;5753;54.402;10.220;2024-03-02T08:28:38;36.13;;;26.80;;
11394;SDS011;5753;54.402;10.220;2024-03-02T08:31:08;39.88;;;24.98;;
11394;SDS011;5753;54.402;10.220;2024-03-02T08:33:35;38.97;;;24.55;;
11394;SDS011;5753;54.402;10.220;2024-03-02T08:36:01;41.88;;;24.65;;
11394;SDS011;5753;54.402;10.220;2024-03-02T08:38:28;43.92;;;25.15;;
11394;SDS011;5753;54.402;10.220;2024-03-02T08:40:54;40.03;;;23.50;;
11394;SDS011;5753;54.402;10.220;2024-03-02T08:43:22;36.50;;;24.35;;
11394;SDS011;5753;54.402;10.220;2024-03-02T08:45:50;33.97;;;20.70;;
11394;SDS011;5753;54.402;10.220;2024-03-02T08:48:17;30.25;;;21.67;;
11394;SDS011;5753;54.402;10.220;2024-03-02T08:50:45;35.58;;;21.52;;
11394;SDS011;5753;54.402;10.220;2024-03-02T08:53:12;38.00;;;26.00;;
11394;SDS011;5753;54.402;10.220;2024-03-02T08:55:43;34.88;;;20.73;;
11394;SDS011;5753;54.402;10.220;2024-03-02T08:58:11;37.38;;;24.45;;
11394;SDS011;5753;54.402;10.220;2024-03-02T09:00:39;30.23;;;22.52;;
11394;SDS011;5753;54.402;10.220;2024-03-02T09:03:05;29.38;;;20.30;;
11394;SDS011;5753;54.402;10.220;2024-03-02T09:05:32;36.33;;;22.17;;
11394;SDS011;5753;54.402;10.220;2024-03-02T09:07:59;32.15;;;20.27;;
11394;SDS011;5753;54.402;10.220;2024-03-02T09:10:26;33.30;;;23.17;;
11394;SDS011;5753;54.402;10.220;2024-03-02T09:12:53;28.83;;;21.60;;
11394;SDS011;5753;54.402;10.220;2024-03-02T09:15:19;33.25;;;18.08;;
11394;SDS011;5753;54.402;10.220;2024-03-02T09:17:47;29.48;;;23.17;;
11394;SDS011;5753;54.402;10.220;2024-03-02T09:20:15;31.88;;;22.73;;
11394;SDS011;5753;54.402;10.220;2024-03-02T09:22:43;38.85;;;22.50;;
11394;SDS011;5753;54.402;10.220;2024-03-02T09:25:12;33.08;;;20.15;;
11394;SDS011;5753;54.402;10.220;2024-03-02T09:27:42;28.88;;;19.42;;
11394;SDS011;5753;54.402;10.220;2024-03-02T09:30:10;34.50;;;21.10;;
11394;SDS011;5753;54.402;10.220;2024-03-02T09:32:39;30.27;;;22.42;;
11394;SDS011;5753;54.402;10.220;2024-03-02T09:35:07;33.58;;;20.23;;
11394;SDS011;5753;54.402;10.220;2024-03-02T09:37:37;21.88;;;18.75;;
11394;SDS011;5753;54.402;10.220;2024-03-02T09:40:04;27.90;;;17.40;;
11394;SDS011;5753;54.402;10.220;2024-03-02T09:42:31;28.02;;;17.17;;
11394;SDS011;5753;54.402;10.220;2024-03-02T09:44:58;30.35;;;19.35;;
11394;SDS011;5753;54.402;10.220;2024-03-02T09:47:26;25.30;;;17.33;;
11394;SDS011;5753;54.402;10.220;2024-03-02T09:49:54;27.02;;;17.73;;
11394;SDS011;5753;54.402;10.220;2024-03-02T09:52:22;29.38;;;20.67;;
11394;SDS011;5753;54.402;10.220;2024-03-02T09:54:48;29.52;;;16.05;;
11394;SDS011;5753;54.402;10.220;2024-03-02T09:57:15;27.30;;;18.00;;
11394;SDS011;5753;54.402;10.220;2024-03-02T09:59:45;23.45;;;18.40;;
11394;SDS011;5753;54.402;10.220;2024-03-02T10:02:13;29.55;;;17.27;;
11394;SDS011;5753;54.402;10.220;2024-03-02T10:04:40;25.77;;;16.27;;
11394;SDS011;5753;54.402;10.220;2024-03-02T10:07:18;31.67;;;17.77;;
11394;SDS011;5753;54.402;10.220;2024-03-02T10:09:45;21.80;;;17.58;;
11394;SDS011;5753;54.402;10.220;2024-03-02T10:12:15;25.02;;;17.42;;
11394;SDS011;5753;54.402;10.220;2024-03-02T10:14:44;23.23;;;17.48;;
11394;SDS011;5753;54.402;10.220;2024-03-02T10:17:14;29.05;;;21.40;;
11394;SDS011;5753;54.402;10.220;2024-03-02T10:19:43;26.52;;;17.90;;
11394;SDS011;5753;54.402;10.220;2024-03-02T10:22:09;23.58;;;16.27;;
11394;SDS011;5753;54.402;10.220;2024-03-02T10:24:41;27.48;;;14.68;;
11394;SDS011;5753;54.402;10.220;2024-03-02T10:27:28;32.38;;;16.80;;
11394;SDS011;5753;54.402;10.220;2024-03-02T10:29:56;27.38;;;15.20;;
11394;SDS011;5753;54.402;10.220;2024-03-02T10:32:24;25.73;;;17.80;;
11394;SDS011;5753;54.402;10.220;2024-03-02T10:34:52;28.27;;;18.90;;
11394;SDS011;5753;54.402;10.220;2024-03-02T10:37:23;26.02;;;19.13;;
11394;SDS011;5753;54.402;10.220;2024-03-02T10:39:54;31.45;;;17.63;;
11394;SDS011;5753;54.402;10.220;2024-03-02T10:42:24;23.15;;;17.80;;
11394;SDS011;5753;54.402;10.220;2024-03-02T10:44:52;22.52;;;15.70;;
11394;SDS011;5753;54.402;10.220;2024-03-02T10:47:19;26.30;;;17.98;;
11394;SDS011;5753;54.402;10.220;2024-03-02T10:49:47;27.63;;;16.00;;
11394;SDS011;5753;54.402;10.220;2024-03-02T10:52:19;23.92;;;16.88;;
11394;SDS011;5753;54.402;10.220;2024-03-02T10:54:49;21.67;;;15.57;;
11394;SDS011;5753;54.402;10.220;2024-03-02T10:57:16;22.25;;;17.92;;
11394;SDS011;5753;54.402;10.220;2024-03-02T10:59:51;21.70;;;15.25;;
11394;SDS011;5753;54.402;10.220;2024-03-02T11:02:23;26.20;;;18.08;;
11394;SDS011;5753;54.402;10.220;2024-03-02T11:04:53;21.60;;;16.27;;
11394;SDS011;5753;54.402;10.220;2024-03-02T11:07:21;25.52;;;19.40;;
11394;SDS011;5753;54.402;10.220;2024-03-02T11:09:59;21.40;;;15.77;;
11394;SDS011;5753;54.402;10.220;2024-03-02T11:12:56;23.77;;;18.10;;
11394;SDS011;5753;54.402;10.220;2024-03-02T11:15:34;21.65;;;17.75;;
11394;SDS011;5753;54.402;10.220;2024-03-02T11:18:05;23.35;;;18.58;;
11394;SDS011;5753;54.402;10.220;2024-03-02T11:20:38;21.60;;;17.25;;
11394;SDS011;5753;54.402;10.220;2024-03-02T11:23:07;25.13;;;15.32;;
11394;SDS011;5753;54.402;10.220;2024-03-02T11:25:37;24.48;;;17.63;;
11394;SDS011;5753;54.402;10.220;2024-03-02T11:28:07;21.92;;;17.13;;
11394;SDS011;5753;54.402;10.220;2024-03-02T11:33:30;19.25;;;16.83;;
11394;SDS011;5753;54.402;10.220;2024-03-02T11:35:57;28.50;;;16.38;;
11394;SDS011;5753;54.402;10.220;2024-03-02T11:38:24;20.75;;;14.05;;
11394;SDS011;5753;54.402;10.220;2024-03-02T11:40:56;23.33;;;17.80;;
11394;SDS011;5753;54.402;10.220;2024-03-02T11:43:24;34.45;;;15.45;;
11394;SDS011;5753;54.402;10.220;2024-03-02T11:45:56;17.60;;;15.18;;
11394;SDS011;5753;54.402;10.220;2024-03-02T11:48:25;21.40;;;14.68;;
11394;SDS011;5753;54.402;10.220;2024-03-02T11:50:53;17.55;;;11.70;;
11394;SDS011;5753;54.402;10.220;2024-03-02T11:53:26;16.02;;;11.35;;
11394;SDS011;5753;54.402;10.220;2024-03-02T11:55:56;22.92;;;16.60;;
11394;SDS011;5753;54.402;10.220;2024-03-02T11:58:24;17.63;;;15.60;;
11394;SDS011;5753;54.402;10.220;2024-03-02T12:00:53;22.70;;;13.88;;
11394;SDS011;5753;54.402;10.220;2024-03-02T12:03:22;21.85;;;14.70;;
11394;SDS011;5753;54.402;10.220;2024-03-02T12:05:54;22.70;;;16.90;;
11394;SDS011;5753;54.402;10.220;2024-03-02T12:08:23;29.58;;;17.17;;
11394;SDS011;5753;54.402;10.220;2024-03-02T12:11:00;21.90;;;14.90;;
11394;SDS011;5753;54.402;10.220;2024-03-02T12:13:27;23.77;;;13.40;;
11394;SDS011;5753;54.402;10.220;2024-03-02T12:16:03;25.55;;;13.93;;
11394;SDS011;5753;54.402;10.220;2024-03-02T12:18:30;18.20;;;12.38;;
11394;SDS011;5753;54.402;10.220;2024-03-02T12:20:57;21.48;;;15.38;;
11394;SDS011;5753;54.402;10.220;2024-03-02T12:23:24;20.13;;;14.45;;
11394;SDS011;5753;54.402;10.220;2024-03-02T12:25:52;23.52;;;16.92;;
11394;SDS011;5753;54.402;10.220;2024-03-02T12:28:19;18.42;;;12.57;;
11394;SDS011;5753;54.402;10.220;2024-03-02T12:30:46;16.95;;;13.45;;
11394;SDS011;5753;54.402;10.220;2024-03-02T12:33:14;20.00;;;13.93;;
11394;SDS011;5753;54.402;10.220;2024-03-02T12:35:41;20.23;;;13.82;;
11394;SDS011;5753;54.402;10.220;2024-03-02T12:38:08;23.92;;;16.10;;
11394;SDS011;5753;54.402;10.220;2024-03-02T12:40:39;21.55;;;14.82;;
11394;SDS011;5753;54.402;10.220;2024-03-02T12:43:08;21.45;;;15.77;;
11394;SDS011;5753;54.402;10.220;2024-03-02T12:45:37;20.48;;;16.95;;
11394;SDS011;5753;54.402;10.220;2024-03-02T12:48:04;21.33;;;15.07;;
11394;SDS011;5753;54.402;10.220;2024-03-02T12:50:32;26.20;;;16.85;;
11394;SDS011;5753;54.402;10.220;2024-03-02T12:53:02;21.50;;;15.20;;
11394;SDS011;5753;54.402;10.220;2024-03-02T12:55:30;26.23;;;13.93;;
11394;SDS011;5753;54.402;10.220;2024-03-02T12:57:57;26.48;;;16.88;;
11394;SDS011;5753;54.402;10.220;2024-03-02T13:00:25;18.83;;;13.27;;
11394;SDS011;5753;54.402;10.220;2024-03-02T13:02:53;25.25;;;17.50;;
11394;SDS011;5753;54.402;10.220;2024-03-02T13:05:31;23.83;;;19.50;;
11394;SDS011;5753;54.402;10.220;2024-03-02T13:07:59;20.70;;;15.82;;
11394;SDS011;5753;54.402;10.220;2024-03-02T13:10:30;21.55;;;14.32;;
11394;SDS011;5753;54.402;10.220;2024-03-02T13:12:57;27.85;;;14.20;;
11394;SDS011;5753;54.402;10.220;2024-03-02T13:15:28;22.27;;;17.25;;
11394;SDS011;5753;54.402;10.220;2024-03-02T13:17:58;22.83;;;16.63;;
11394;SDS011;5753;54.402;10.220;2024-03-02T13:20:31;24.15;;;17.85;;
11394;SDS011;5753;54.402;10.220;2024-03-02T13:22:57;20.60;;;15.48;;
11394;SDS011;5753;54.402;10.220;2024-03-02T13:25:25;24.65;;;15.70;;
11394;SDS011;5753;54.402;10.220;2024-03-02T13:27:53;22.73;;;16.85;;
11394;SDS011;5753;54.402;10.220;2024-03-02T13:30:23;21.48;;;16.27;;
11394;SDS011;5753;54.402;10.220;2024-03-02T13:32:50;23.80;;;16.05;;
11394;SDS011;5753;54.402;10.220;2024-03-02T13:35:21;20.23;;;15.93;;
11394;SDS011;5753;54.402;10.220;2024-03-02T13:37:51;22.15;;;14.73;;
11394;SDS011;5753;54.402;10.220;2024-03-02T13:40:23;21.30;;;13.25;;
11394;SDS011;5753;54.402;10.220;2024-03-02T13:42:52;25.23;;;17.70;;
11394;SDS011;5753;54.402;10.220;2024-03-02T13:45:20;19.33;;;17.10;;
11394;SDS011;5753;54.402;10.220;2024-03-02T13:47:48;30.45;;;18.02;;
11394;SDS011;5753;54.402;10.220;2024-03-02T13:50:16;25.02;;;17.35;;
11394;SDS011;5753;54.402;10.220;2024-03-02T13:52:42;23.70;;;15.23;;
11394;SDS011;5753;54.402;10.220;2024-03-02T13:55:09;19.85;;;14.27;;
11394;SDS011;5753;54.402;10.220;2024-03-02T13:57:35;22.30;;;14.13;;
11394;SDS011;5753;54.402;10.220;2024-03-02T14:00:02;24.95;;;15.93;;
11394;SDS011;5753;54.402;10.220;2024-03-02T14:02:37;21.70;;;16.02;;
11394;SDS011;5753;54.402;10.220;2024-03-02T14:05:05;21.38;;;16.10;;
11394;SDS011;5753;54.402;10.220;2024-03-02T14:07:38;19.02;;;14.55;;
11394;SDS011;5753;54.402;10.220;2024-03-02T14:10:05;18.08;;;14.85;;
11394;SDS011;5753;54.402;10.220;2024-03-02T14:12:33;20.38;;;12.13;;
11394;SDS011;5753;54.402;10.220;2024-03-02T14:15:01;20.83;;;14.50;;
11394;SDS011;5753;54.402;10.220;2024-03-02T14:17:29;25.00;;;15.50;;
11394;SDS011;5753;54.402;10.220;2024-03-02T14:20:01;19.55;;;13.57;;
11394;SDS011;5753;54.402;10.220;2024-03-02T14:22:31;26.98;;;17.75;;
11394;SDS011;5753;54.402;10.220;2024-03-02T14:25:00;19.02;;;15.02;;
11394;SDS011;5753;54.402;10.220;2024-03-02T14:27:27;22.20;;;14.60;;
11394;SDS011;5753;54.402;10.220;2024-03-02T14:29:55;26.38;;;16.15;;
11394;SDS011;5753;54.402;10.220;2024-03-02T14:32:24;30.13;;;16.30;;